Joppa, Texas
Current Conditions -  °F | °C
As of 10:53 AM on Wednesday 22 Oct 2014 (Local Time) from KBMQ Reporting Station
Clear Clear  
Wind Chill: 71°   Ceiling: Unl
Heat Index: 71°   Visibility: 9mi
Dew Point: 58°   Wind: 7mph
Humidity: 63%   Direction: 100°E
Pressure: 30.17"   Gusts: NA
Location:  30.7452°N, 98.043°W
Report Text: KBMQ 221553Z AUTO 10006KT 9SM CLR 22/14 A3017 RMK AO2 SLP204 T02170144
Loading
Personal Weather Stations






























Interactive Weather Map
Tropical Storm Tracking
New forecast layout! Learn more

10-Day Weather Forecast

Advertisements
Track Severe Weather on mobile